createdAt,value
2023-02-12T06:01:14.850Z,2.92
2023-02-12T06:06:18.546Z,2.80
2023-02-12T06:11:22.318Z,2.97
2023-02-12T06:16:29.002Z,2.87
2023-02-12T06:21:34.216Z,3.40
2023-02-12T06:26:37.777Z,3.20
2023-02-12T06:31:43.200Z,3.22
2023-02-12T06:36:48.581Z,3.15
2023-02-12T06:41:52.296Z,2.72
2023-02-12T06:46:58.735Z,3.45
2023-02-12T06:52:03.510Z,3.30
2023-02-12T06:57:07.318Z,3.08
2023-02-12T07:02:12.904Z,2.92
2023-02-12T07:07:16.499Z,3.22
2023-02-12T07:12:20.131Z,3.70
2023-02-12T07:17:25.201Z,3.45
2023-02-12T07:22:28.956Z,3.50
2023-02-12T07:27:32.693Z,3.80
2023-02-12T07:32:37.694Z,3.55
2023-02-12T07:37:41.363Z,4.18
2023-02-12T07:42:45.002Z,3.55
2023-02-12T07:47:50.029Z,3.62
2023-02-12T07:52:53.725Z,3.58
2023-02-12T07:57:57.339Z,3.62
2023-02-12T08:03:02.439Z,3.35
2023-02-12T08:08:06.174Z,4.37
2023-02-12T08:13:09.755Z,3.78
2023-02-12T08:18:14.737Z,3.87
2023-02-12T08:23:18.364Z,3.70
2023-02-12T08:28:23.283Z,3.37
2023-02-12T08:33:28.346Z,3.28
2023-02-12T08:38:33.320Z,4.18
2023-02-12T08:43:37.532Z,3.75
2023-02-12T08:53:48.373Z,3.42
2023-02-12T08:58:52.674Z,2.67
2023-02-12T09:03:57.703Z,2.37
2023-02-12T09:09:01.468Z,2.65
2023-02-12T09:14:07.089Z,2.47
2023-02-12T09:19:13.896Z,2.97
2023-02-12T09:24:17.968Z,2.83
2023-02-12T09:29:21.674Z,2.55
2023-02-12T09:34:26.688Z,1.87
2023-02-12T09:39:32.283Z,2.97
2023-02-12T09:44:44.979Z,2.12
2023-02-12T09:50:33.053Z,2.28
2023-02-12T09:55:37.385Z,2.97
2023-02-12T10:05:52.079Z,2.50
2023-02-12T10:11:02.218Z,2.90
2023-02-12T10:16:15.634Z,2.95
2023-02-12T10:21:34.875Z,2.33
2023-02-12T10:26:42.471Z,2.28
2023-02-12T10:31:50.071Z,2.28
2023-02-12T10:37:03.034Z,2.25
2023-02-12T10:42:14.086Z,2.67
2023-02-12T10:47:21.679Z,2.65
2023-02-12T10:52:36.583Z,2.37
2023-02-12T10:57:40.862Z,2.40
2023-02-12T11:03:02.153Z,2.90
2023-02-12T11:08:08.171Z,2.40
2023-02-12T11:13:25.288Z,2.42
2023-02-12T11:18:33.028Z,2.53
2023-02-12T11:23:40.038Z,2.05
2023-02-12T11:28:54.784Z,1.90
2023-02-12T11:34:15.217Z,1.98
2023-02-12T11:39:24.862Z,2.15
2023-02-12T11:44:31.173Z,2.05
2023-02-12T11:49:39.817Z,2.20
2023-02-12T11:54:48.235Z,2.37
2023-02-12T11:59:52.745Z,2.80
2023-02-12T12:10:08.714Z,2.33
2023-02-12T12:15:33.723Z,2.20
2023-02-12T12:20:42.693Z,2.22
2023-02-12T12:25:50.805Z,2.55
2023-02-12T12:31:11.751Z,2.20
2023-02-12T12:36:51.300Z,1.98
2023-02-12T12:42:24.768Z,2.42
2023-02-12T12:47:39.223Z,2.67
2023-02-12T12:53:04.114Z,2.30
2023-02-12T13:03:52.881Z,2.17
2023-02-12T13:09:15.987Z,2.15
2023-02-12T13:14:36.633Z,2.47
2023-02-12T13:19:48.390Z,2.60
2023-02-12T13:24:59.225Z,2.47
2023-02-12T13:30:08.731Z,2.92
2023-02-12T13:35:19.586Z,2.42
2023-02-12T13:40:25.113Z,1.73
2023-02-12T13:45:42.006Z,2.75
2023-02-12T13:50:57.272Z,2.40
2023-02-12T13:56:08.920Z,2.80
2023-02-12T14:01:15.493Z,2.70
2023-02-12T14:06:21.711Z,2.15
2023-02-12T14:11:27.603Z,2.30
2023-02-12T14:16:41.467Z,1.90
2023-02-12T14:21:45.470Z,1.83
2023-02-12T14:26:49.439Z,2.45
2023-02-12T14:31:54.611Z,2.45
2023-02-12T14:37:13.844Z,2.22
2023-02-12T14:43:00.458Z,2.10
2023-02-12T14:48:06.553Z,1.73
2023-02-12T14:53:26.573Z,2.00
2023-02-12T14:58:31.947Z,1.70
2023-02-12T15:03:44.102Z,1.75
2023-02-12T15:08:53.941Z,2.45
2023-02-12T15:14:02.336Z,2.42
2023-02-12T15:19:21.801Z,2.08
2023-02-12T15:24:27.234Z,1.52
2023-02-12T15:29:37.210Z,1.80
2023-02-12T15:34:44.813Z,2.10
2023-02-12T15:39:49.074Z,1.60
2023-02-12T15:44:52.992Z,1.30
2023-02-12T15:50:02.244Z,1.15
2023-02-12T15:55:07.400Z,1.60
2023-02-12T16:00:23.564Z,1.10
2023-02-12T16:05:29.351Z,1.25
2023-02-12T16:10:33.624Z,1.30
2023-02-12T16:15:40.316Z,1.58
2023-02-12T16:20:46.868Z,1.70
2023-02-12T16:25:55.634Z,1.40
2023-02-12T16:31:09.936Z,1.70
2023-02-12T16:36:16.946Z,1.17
2023-02-12T16:41:24.730Z,1.33
2023-02-12T16:46:29.045Z,1.48
2023-02-12T16:51:35.420Z,1.50
2023-02-12T16:56:39.789Z,1.65
2023-02-12T17:01:57.742Z,1.37
2023-02-12T17:07:03.097Z,1.48
2023-02-12T17:12:07.627Z,1.80
2023-02-12T17:22:20.360Z,2.45
2023-02-12T17:27:24.293Z,1.70
2023-02-12T17:32:28.227Z,1.37
2023-02-12T17:37:33.526Z,1.95
2023-02-12T17:42:37.477Z,1.70
2023-02-12T17:47:41.511Z,1.92
2023-02-12T17:52:46.813Z,1.67
2023-02-12T17:57:54.030Z,1.73
2023-02-12T18:02:57.938Z,1.55
2023-02-12T18:08:03.630Z,1.70
2023-02-12T18:13:07.544Z,1.83
2023-02-12T18:18:11.518Z,1.80
2023-02-12T18:23:16.873Z,1.77
2023-02-12T18:28:20.847Z,2.35
2023-02-12T18:33:24.768Z,2.08
2023-02-12T18:38:30.665Z,1.87
2023-02-12T18:43:36.173Z,2.08
2023-02-12T18:48:40.551Z,1.95
2023-02-12T18:53:46.420Z,1.98
2023-02-12T18:58:50.391Z,2.30
2023-02-12T19:03:55.535Z,2.00
2023-02-12T19:09:01.847Z,2.55
2023-02-12T19:14:06.228Z,2.15
2023-02-12T19:19:10.671Z,2.05
2023-02-12T19:24:17.480Z,2.20
2023-02-12T19:29:21.591Z,2.20
2023-02-12T19:34:26.857Z,1.67
2023-02-12T19:39:32.521Z,2.55
2023-02-12T19:44:36.615Z,2.42
2023-02-12T19:49:41.451Z,2.33
2023-02-12T19:54:47.370Z,2.58
2023-02-12T19:59:51.269Z,2.53
2023-02-12T20:04:55.185Z,3.00
2023-02-12T20:10:00.613Z,2.95
2023-02-12T20:15:04.937Z,2.92
2023-02-12T20:20:10.246Z,3.25
2023-02-12T20:25:15.537Z,3.37
2023-02-12T20:30:19.788Z,3.35
2023-02-12T20:35:23.666Z,3.75
2023-02-12T20:40:28.759Z,2.78
2023-02-12T20:45:32.587Z,2.78
2023-02-12T20:50:36.251Z,3.67
2023-02-12T20:55:41.543Z,2.60
2023-02-12T21:00:45.447Z,3.30
2023-02-12T21:05:49.640Z,2.92
2023-02-12T21:11:01.687Z,3.20
2023-02-12T21:16:10.762Z,2.92
2023-02-12T21:21:16.119Z,3.30
2023-02-12T21:26:23.009Z,3.37
2023-02-12T21:31:28.746Z,2.78
2023-02-12T21:36:34.664Z,3.00
2023-02-12T21:41:41.504Z,3.08
2023-02-12T21:46:46.586Z,4.20
2023-02-12T21:51:50.540Z,5.25
2023-02-12T21:56:55.895Z,4.20
2023-02-12T22:02:00.910Z,4.00
2023-02-12T22:07:04.887Z,4.50
2023-02-12T22:12:09.916Z,4.07
2023-02-12T22:17:13.530Z,3.42
2023-02-12T22:22:17.173Z,2.72
2023-02-12T22:27:22.132Z,2.90
2023-02-12T22:32:25.928Z,3.08
2023-02-12T22:37:30.086Z,2.65
2023-02-12T22:42:35.168Z,2.22
2023-02-12T22:47:38.814Z,3.47
2023-02-12T22:52:42.515Z,2.95
2023-02-12T22:57:47.557Z,2.87
2023-02-12T23:02:51.214Z,3.20
2023-02-12T23:07:54.892Z,2.92
2023-02-12T23:13:00.588Z,2.72
2023-02-12T23:18:04.318Z,2.58
2023-02-12T23:23:07.924Z,1.98
2023-02-12T23:28:12.988Z,3.62
